createdAt,value
2024-01-28T00:01:19.612Z,26.27
2024-01-28T00:04:22.055Z,26.70
2024-01-28T00:07:24.152Z,26.38
2024-01-28T00:10:26.583Z,25.13
2024-01-28T00:13:29.777Z,28.15
2024-01-28T00:16:32.146Z,36.00
2024-01-28T00:19:34.638Z,27.67
2024-01-28T00:22:36.902Z,34.08
2024-01-28T00:25:39.001Z,33.90
2024-01-28T00:28:41.278Z,37.72
2024-01-28T00:31:43.443Z,29.45
2024-01-28T00:34:48.986Z,26.08
2024-01-28T00:37:56.332Z,25.08
2024-01-28T00:41:01.575Z,22.45
2024-01-28T00:44:03.758Z,24.40
2024-01-28T00:47:06.105Z,31.08
2024-01-28T00:50:08.686Z,35.20
2024-01-28T00:53:11.088Z,28.05
2024-01-28T00:56:17.800Z,21.13
2024-01-28T00:59:20.907Z,20.35
2024-01-28T01:02:23.214Z,23.75
2024-01-28T01:05:25.423Z,21.75
2024-01-28T01:08:27.713Z,22.05
2024-01-28T01:11:29.854Z,28.75
2024-01-28T01:14:36.806Z,33.25
2024-01-28T01:17:39.226Z,31.23
2024-01-28T01:20:41.441Z,28.80
2024-01-28T01:23:43.611Z,36.00
2024-01-28T01:26:45.858Z,27.42
2024-01-28T01:29:48.020Z,20.27
2024-01-28T01:32:50.208Z,22.38
2024-01-28T01:35:52.723Z,23.48
2024-01-28T01:38:54.933Z,20.08
2024-01-28T01:41:57.936Z,23.85
2024-01-28T01:45:00.252Z,23.15
2024-01-28T01:48:02.663Z,21.58
2024-01-28T01:51:08.100Z,29.48
2024-01-28T01:54:10.655Z,17.83
2024-01-28T01:57:13.644Z,22.90
2024-01-28T02:00:16.841Z,22.02
2024-01-28T02:03:19.259Z,24.67
2024-01-28T02:06:21.542Z,23.33
2024-01-28T02:09:24.175Z,19.67
2024-01-28T02:12:26.805Z,21.30
2024-01-28T02:15:29.179Z,21.98
2024-01-28T02:18:31.634Z,24.92
2024-01-28T02:21:33.968Z,28.33
2024-01-28T02:24:36.131Z,33.85
2024-01-28T02:27:40.725Z,27.17
2024-01-28T02:30:43.389Z,35.45
2024-01-28T02:33:45.813Z,31.88
2024-01-28T02:36:48.139Z,33.05
2024-01-28T02:39:50.338Z,25.33
2024-01-28T02:42:52.603Z,26.05
2024-01-28T02:45:54.880Z,21.10
2024-01-28T02:48:57.766Z,29.38
2024-01-28T02:52:00.019Z,23.55
2024-01-28T02:55:02.146Z,17.70
2024-01-28T02:58:04.705Z,21.48
2024-01-28T03:01:07.263Z,16.73
2024-01-28T03:04:09.595Z,14.63
2024-01-28T03:07:11.757Z,17.13
2024-01-28T03:10:14.037Z,14.27
2024-01-28T03:13:16.344Z,13.68
2024-01-28T03:16:19.006Z,15.85
2024-01-28T03:19:21.309Z,17.40
2024-01-28T03:22:23.604Z,12.82
2024-01-28T03:25:25.665Z,12.70
2024-01-28T03:28:27.785Z,11.52
2024-01-28T03:31:30.029Z,13.95
2024-01-28T03:34:32.466Z,19.65
2024-01-28T03:37:34.737Z,19.00
2024-01-28T03:40:36.828Z,17.00
2024-01-28T03:43:39.860Z,19.58
2024-01-28T03:46:42.093Z,20.40
2024-01-28T03:49:44.281Z,16.48
2024-01-28T03:52:47.145Z,16.27
2024-01-28T03:55:49.234Z,14.80
2024-01-28T03:58:51.482Z,15.27
2024-01-28T04:01:53.691Z,18.02
2024-01-28T04:04:55.894Z,14.90
2024-01-28T04:07:58.111Z,14.90
2024-01-28T04:11:00.249Z,16.33
2024-01-28T04:14:02.338Z,18.20
2024-01-28T04:17:04.617Z,16.23
2024-01-28T04:20:07.930Z,15.90
2024-01-28T04:23:10.049Z,14.02
2024-01-28T04:26:12.375Z,15.77
2024-01-28T04:29:14.711Z,14.75
2024-01-28T04:32:16.844Z,14.15
2024-01-28T04:35:19.068Z,14.60
2024-01-28T04:38:21.261Z,18.90
2024-01-28T04:41:23.442Z,14.57
2024-01-28T04:44:25.613Z,18.38
2024-01-28T04:47:27.876Z,20.40
2024-01-28T04:50:30.014Z,20.63
2024-01-28T04:53:32.190Z,20.50
2024-01-28T04:56:34.356Z,17.55
2024-01-28T04:59:36.647Z,21.38
2024-01-28T05:02:39.782Z,27.40
2024-01-28T05:05:42.657Z,28.15
2024-01-28T05:08:44.859Z,40.33
2024-01-28T05:11:47.098Z,8.77
2024-01-28T05:14:49.380Z,11.95
2024-01-28T05:17:51.681Z,7.70
2024-01-28T05:20:53.816Z,13.82
2024-01-28T05:23:56.060Z,15.57
2024-01-28T05:26:58.406Z,17.60
2024-01-28T05:30:00.568Z,16.40
2024-01-28T05:33:02.776Z,22.98
2024-01-28T05:36:14.860Z,26.17
2024-01-28T05:39:18.313Z,17.60
2024-01-28T05:42:20.557Z,16.25
2024-01-28T05:45:22.738Z,20.65
2024-01-28T05:48:25.011Z,19.98
2024-01-28T05:51:28.534Z,18.15
2024-01-28T05:54:31.937Z,19.15
2024-01-28T05:57:34.505Z,21.67
2024-01-28T06:00:36.744Z,19.92
2024-01-28T06:03:39.077Z,21.58
2024-01-28T06:06:43.804Z,18.45
2024-01-28T06:09:46.288Z,17.52
2024-01-28T06:12:48.547Z,16.08
2024-01-28T06:15:53.127Z,24.67
2024-01-28T06:18:57.769Z,16.95
2024-01-28T06:22:03.712Z,17.13
2024-01-28T06:25:08.641Z,14.57
2024-01-28T06:28:10.904Z,18.13
2024-01-28T06:31:14.621Z,20.50
2024-01-28T06:34:17.235Z,18.02
2024-01-28T06:37:19.834Z,18.65
2024-01-28T06:40:22.028Z,15.82
2024-01-28T06:43:26.871Z,16.17
2024-01-28T06:46:29.006Z,16.88
2024-01-28T06:49:31.363Z,27.75
2024-01-28T06:52:33.565Z,23.27
2024-01-28T06:55:36.153Z,27.38
2024-01-28T06:58:38.385Z,23.52
2024-01-28T07:01:41.051Z,23.50
2024-01-28T07:04:43.323Z,23.38
2024-01-28T07:07:46.188Z,17.48
2024-01-28T07:10:48.514Z,18.20
2024-01-28T07:13:50.754Z,20.92
2024-01-28T07:16:53.067Z,17.73
2024-01-28T07:19:55.440Z,18.67
2024-01-28T07:22:57.772Z,16.77
2024-01-28T07:25:59.863Z,22.48
2024-01-28T07:29:02.020Z,18.73
2024-01-28T07:32:05.223Z,20.40
2024-01-28T07:35:08.313Z,19.90
2024-01-28T07:38:10.666Z,24.58
2024-01-28T07:41:15.976Z,21.50
2024-01-28T07:44:18.122Z,19.92
2024-01-28T07:47:20.565Z,18.92
2024-01-28T07:50:22.888Z,26.60
2024-01-28T07:53:24.952Z,24.88
2024-01-28T07:56:27.860Z,26.35
2024-01-28T07:59:30.060Z,24.95
2024-01-28T08:02:32.681Z,31.67
2024-01-28T08:05:34.910Z,30.88
2024-01-28T08:08:37.091Z,35.33
2024-01-28T08:11:39.758Z,33.80
2024-01-28T08:14:42.048Z,33.30
2024-01-28T08:17:46.061Z,32.58
2024-01-28T08:20:48.285Z,26.20
2024-01-28T08:23:50.279Z,27.88
2024-01-28T08:26:52.493Z,25.25
2024-01-28T08:29:54.650Z,31.58
2024-01-28T08:32:56.837Z,22.88
2024-01-28T08:35:59.255Z,24.65
2024-01-28T08:39:01.879Z,26.63
2024-01-28T08:42:04.040Z,21.40
2024-01-28T08:45:06.589Z,23.83
2024-01-28T08:48:11.557Z,35.40
2024-01-28T08:51:13.948Z,30.90
2024-01-28T08:54:16.219Z,41.53
2024-01-28T08:57:20.120Z,25.75
2024-01-28T09:00:22.680Z,26.60
2024-01-28T09:03:25.167Z,28.45
2024-01-28T09:06:27.614Z,34.10
2024-01-28T09:09:30.267Z,21.83
2024-01-28T09:12:32.388Z,36.28
2024-01-28T09:15:34.603Z,28.40
2024-01-28T09:18:36.814Z,37.83
2024-01-28T09:21:39.004Z,28.75
2024-01-28T09:24:41.503Z,27.13
2024-01-28T09:27:49.508Z,32.42
2024-01-28T09:30:52.245Z,19.25
2024-01-28T09:33:54.582Z,22.13
2024-01-28T09:36:57.179Z,43.33
2024-01-28T09:40:00.412Z,27.95
2024-01-28T09:43:41.126Z,9.50
2024-01-28T09:49:20.515Z,22.35
2024-01-28T09:52:22.923Z,31.67
2024-01-28T09:55:25.012Z,24.48
2024-01-28T09:58:27.367Z,23.00
2024-01-28T10:01:32.383Z,35.75
2024-01-28T10:04:36.337Z,31.13
2024-01-28T10:08:05.720Z,26.52
2024-01-28T10:11:10.826Z,22.42
2024-01-28T10:14:13.994Z,12.98
2024-01-28T10:17:16.159Z,11.98
2024-01-28T10:20:23.859Z,20.38
2024-01-28T10:23:26.058Z,16.83
2024-01-28T10:26:28.202Z,22.52
2024-01-28T10:29:30.283Z,27.92
2024-01-28T10:32:32.497Z,21.02
2024-01-28T10:35:34.898Z,19.90
2024-01-28T10:38:43.861Z,23.27
2024-01-28T10:41:51.771Z,15.07
2024-01-28T10:44:59.784Z,15.18
2024-01-28T10:48:11.567Z,6.13
2024-01-28T10:51:16.386Z,10.57
2024-01-28T10:54:18.725Z,15.77
2024-01-28T10:57:22.754Z,22.48
2024-01-28T11:00:26.350Z,16.17
2024-01-28T11:03:29.107Z,26.45
2024-01-28T11:06:31.573Z,30.33
2024-01-28T11:09:34.134Z,26.80
2024-01-28T11:20:15.013Z,23.02
2024-01-28T11:23:17.950Z,19.67
2024-01-28T11:26:20.478Z,24.25
2024-01-28T11:29:22.673Z,24.73
2024-01-28T11:32:35.010Z,23.45
2024-01-28T11:35:37.547Z,26.17
2024-01-28T11:38:44.425Z,31.98
2024-01-28T11:41:46.779Z,25.90
2024-01-28T11:44:49.825Z,22.15
2024-01-28T11:47:52.640Z,20.80
2024-01-28T11:50:54.937Z,22.33
2024-01-28T11:53:57.096Z,32.60
2024-01-28T11:57:01.521Z,39.28
2024-01-28T12:00:09.520Z,21.40
2024-01-28T12:03:11.910Z,21.35
2024-01-28T12:06:15.423Z,23.13
2024-01-28T12:09:17.646Z,21.77
2024-01-28T12:12:19.867Z,19.80
2024-01-28T12:15:22.310Z,16.40
2024-01-28T12:18:24.755Z,21.15
2024-01-28T12:21:29.089Z,21.30
2024-01-28T12:24:32.723Z,23.80
2024-01-28T12:27:34.863Z,23.80
2024-01-28T12:30:39.060Z,26.92
2024-01-28T12:33:41.452Z,25.70
2024-01-28T12:36:43.946Z,33.78
2024-01-28T12:39:46.330Z,20.85
2024-01-28T12:42:48.715Z,18.98
2024-01-28T12:45:52.352Z,18.20
2024-01-28T12:48:57.288Z,20.60
2024-01-28T12:51:59.731Z,24.92
2024-01-28T12:55:02.627Z,31.85
2024-01-28T13:05:15.813Z,28.40
2024-01-28T13:08:18.268Z,19.67
2024-01-28T13:11:20.491Z,22.67
2024-01-28T13:14:22.708Z,24.08
2024-01-28T13:17:26.050Z,23.90
2024-01-28T13:20:28.417Z,23.48
2024-01-28T13:23:30.708Z,33.08
2024-01-28T13:26:33.211Z,30.55
2024-01-28T13:29:39.379Z,23.02
2024-01-28T13:32:41.776Z,30.65
2024-01-28T13:35:44.011Z,28.70
2024-01-28T13:38:46.326Z,17.55
2024-01-28T13:41:48.519Z,16.08
2024-01-28T13:44:51.533Z,20.48
2024-01-28T13:47:53.848Z,23.67
2024-01-28T13:50:56.269Z,35.70
2024-01-28T13:53:58.531Z,20.73
2024-01-28T13:57:01.144Z,15.25
2024-01-28T14:00:04.433Z,11.48
2024-01-28T14:03:07.466Z,21.38
2024-01-28T14:06:09.784Z,20.70
2024-01-28T14:09:12.658Z,11.43
2024-01-28T14:12:15.182Z,13.88
2024-01-28T14:15:17.497Z,21.38
2024-01-28T14:18:19.975Z,26.48
2024-01-28T14:21:26.622Z,25.63
2024-01-28T14:24:28.897Z,27.20
2024-01-28T14:27:31.119Z,25.85
2024-01-28T14:30:33.380Z,30.73
2024-01-28T14:33:35.653Z,29.80
2024-01-28T14:36:38.089Z,30.75
2024-01-28T14:39:40.394Z,29.40
2024-01-28T14:42:42.772Z,27.67
2024-01-28T14:45:46.712Z,24.40
2024-01-28T14:48:49.460Z,21.63
2024-01-28T14:51:52.423Z,20.88
2024-01-28T14:54:54.701Z,20.98
2024-01-28T14:57:57.123Z,19.45
2024-01-28T15:00:59.290Z,29.60
2024-01-28T15:04:01.536Z,23.50
2024-01-28T15:07:04.457Z,24.77
2024-01-28T15:10:07.943Z,27.98
2024-01-28T15:13:10.303Z,28.02
2024-01-28T15:16:12.711Z,19.30
2024-01-28T15:19:15.078Z,23.90
2024-01-28T15:22:17.419Z,22.85
2024-01-28T15:25:20.216Z,24.50
2024-01-28T15:28:25.533Z,26.02
2024-01-28T15:31:31.340Z,29.08
2024-01-28T15:34:33.459Z,27.38
2024-01-28T15:37:35.981Z,27.42
2024-01-28T15:40:38.143Z,25.30
2024-01-28T15:43:40.226Z,23.90
2024-01-28T15:46:42.520Z,24.40
2024-01-28T15:49:45.265Z,32.08
2024-01-28T15:52:47.582Z,23.10
2024-01-28T15:55:49.859Z,26.08
2024-01-28T15:58:52.226Z,18.13
2024-01-28T16:01:54.395Z,17.85
2024-01-28T16:04:56.647Z,18.13
2024-01-28T16:07:59.411Z,21.15
2024-01-28T16:11:01.570Z,27.63
2024-01-28T16:14:04.411Z,22.52
2024-01-28T16:17:06.873Z,16.42
2024-01-28T16:20:10.740Z,17.73
2024-01-28T16:23:13.421Z,14.30
2024-01-28T16:26:15.746Z,19.98
2024-01-28T16:29:18.025Z,10.82
2024-01-28T16:32:20.062Z,18.48
2024-01-28T16:35:22.845Z,17.42
2024-01-28T16:38:25.062Z,19.13
2024-01-28T16:41:28.633Z,16.48
2024-01-28T16:44:30.846Z,27.95
2024-01-28T16:47:33.529Z,26.98
2024-01-28T16:50:37.226Z,30.10
2024-01-28T16:53:39.385Z,27.17
2024-01-28T16:56:41.548Z,22.42
2024-01-28T16:59:44.148Z,22.20
2024-01-28T17:02:46.288Z,19.33
2024-01-28T17:05:48.761Z,17.27
2024-01-28T17:08:50.897Z,24.67
2024-01-28T17:11:53.400Z,17.00
2024-01-28T17:14:55.707Z,20.02
2024-01-28T17:17:58.121Z,17.50
2024-01-28T17:21:05.799Z,21.42
2024-01-28T17:24:08.672Z,24.85
2024-01-28T17:27:10.847Z,19.02
2024-01-28T17:30:13.297Z,17.23
2024-01-28T17:33:15.854Z,20.77
2024-01-28T17:36:18.352Z,30.70
2024-01-28T17:39:20.859Z,31.05
2024-01-28T17:42:27.683Z,29.70
2024-01-28T17:45:31.485Z,34.87
2024-01-28T17:48:36.494Z,33.55
2024-01-28T17:51:39.714Z,33.03
2024-01-28T17:54:42.404Z,42.17
2024-01-28T17:57:44.713Z,29.27
2024-01-28T18:00:47.438Z,30.17
2024-01-28T18:03:49.927Z,29.75
2024-01-28T18:06:52.685Z,31.10
2024-01-28T18:09:55.054Z,27.25
2024-01-28T18:12:57.555Z,26.25
2024-01-28T18:16:00.108Z,26.83
2024-01-28T18:19:02.491Z,21.70
2024-01-28T18:22:05.226Z,27.65
2024-01-28T18:25:07.764Z,33.67
2024-01-28T18:28:11.165Z,27.30
2024-01-28T18:31:13.251Z,35.88
2024-01-28T18:34:15.500Z,37.25
2024-01-28T18:37:17.833Z,30.00
2024-01-28T18:40:20.291Z,31.95
2024-01-28T18:43:22.656Z,22.80
2024-01-28T18:46:24.813Z,28.00
2024-01-28T18:49:27.159Z,29.27
2024-01-28T18:52:29.608Z,31.17
2024-01-28T18:55:32.333Z,29.10
2024-01-28T18:58:34.395Z,34.65
2024-01-28T19:01:38.141Z,30.45
2024-01-28T19:04:41.128Z,31.83
2024-01-28T19:07:43.647Z,39.00
2024-01-28T19:10:45.829Z,24.35
2024-01-28T19:13:49.470Z,35.95
2024-01-28T19:16:51.729Z,40.83
2024-01-28T19:19:53.940Z,27.35
2024-01-28T19:22:57.098Z,29.75
2024-01-28T19:25:59.791Z,25.35
2024-01-28T19:29:02.631Z,37.75
2024-01-28T19:32:05.751Z,38.92
2024-01-28T19:35:08.599Z,27.45
2024-01-28T19:38:10.920Z,39.67
2024-01-28T19:41:14.720Z,30.95
2024-01-28T19:44:17.064Z,28.05
2024-01-28T19:47:19.220Z,39.00
2024-01-28T19:50:21.376Z,25.80
2024-01-28T19:53:23.712Z,27.27
2024-01-28T19:56:25.884Z,41.75
2024-01-28T19:59:28.220Z,30.80
2024-01-28T20:02:30.428Z,31.42
2024-01-28T20:05:32.738Z,36.60
2024-01-28T20:08:34.926Z,28.40
2024-01-28T20:11:37.247Z,37.13
2024-01-28T20:14:39.578Z,32.05
2024-01-28T20:17:44.296Z,25.98
2024-01-28T20:20:47.016Z,25.27
2024-01-28T20:23:50.147Z,24.45
2024-01-28T20:26:52.783Z,26.17
2024-01-28T20:29:54.938Z,22.23
2024-01-28T20:32:57.174Z,27.95
2024-01-28T20:36:00.629Z,25.17
2024-01-28T20:39:06.141Z,29.52
2024-01-28T20:42:10.883Z,26.55
2024-01-28T20:45:13.946Z,27.10
2024-01-28T20:48:16.466Z,25.73
2024-01-28T20:51:19.920Z,31.33
2024-01-28T20:54:22.296Z,23.52
2024-01-28T20:57:24.520Z,25.77
2024-01-28T21:00:26.779Z,31.15
2024-01-28T21:03:29.476Z,27.58
2024-01-28T21:06:31.673Z,27.88
2024-01-28T21:09:34.055Z,30.05
2024-01-28T21:12:36.703Z,28.70
2024-01-28T21:15:39.047Z,37.97
2024-01-28T21:18:41.202Z,30.00
2024-01-28T21:21:44.071Z,26.63
2024-01-28T21:24:47.238Z,23.88
2024-01-28T21:27:51.957Z,25.63
2024-01-28T21:30:56.007Z,27.88
2024-01-28T21:33:58.876Z,26.30
2024-01-28T21:37:01.072Z,22.23
2024-01-28T21:40:04.971Z,29.42
2024-01-28T21:43:07.406Z,30.75
2024-01-28T21:46:09.998Z,25.42
2024-01-28T21:49:12.582Z,27.25
2024-01-28T21:52:14.794Z,25.83
2024-01-28T21:55:17.117Z,23.33
2024-01-28T21:58:19.507Z,36.50
2024-01-28T22:01:22.066Z,27.63
2024-01-28T22:04:24.364Z,28.55
2024-01-28T22:07:26.593Z,29.80
2024-01-28T22:10:28.918Z,23.92
2024-01-28T22:13:31.357Z,25.38
2024-01-28T22:16:33.675Z,22.88
2024-01-28T22:19:35.915Z,24.63
2024-01-28T22:22:38.114Z,35.83
2024-01-28T22:25:40.249Z,32.85
2024-01-28T22:28:42.416Z,27.48
2024-01-28T22:31:44.883Z,30.73
2024-01-28T22:34:47.356Z,28.17
2024-01-28T22:37:49.641Z,29.50
2024-01-28T22:40:52.021Z,28.45
2024-01-28T22:43:54.502Z,26.92
2024-01-28T22:46:56.701Z,26.40
2024-01-28T22:50:00.276Z,23.65
2024-01-28T22:53:02.507Z,25.10
2024-01-28T22:56:05.002Z,27.27
2024-01-28T22:59:07.385Z,27.08
2024-01-28T23:02:11.155Z,27.40
2024-01-28T23:05:13.444Z,22.58
2024-01-28T23:08:15.729Z,26.85
2024-01-28T23:11:18.062Z,25.27
2024-01-28T23:14:20.253Z,23.02
2024-01-28T23:17:22.381Z,24.27
2024-01-28T23:20:24.763Z,21.73
2024-01-28T23:23:27.221Z,21.95
2024-01-28T23:26:29.607Z,22.30
2024-01-28T23:29:32.213Z,23.60
2024-01-28T23:32:35.157Z,23.65
2024-01-28T23:35:37.657Z,25.73
2024-01-28T23:38:42.122Z,25.23
2024-01-28T23:41:45.050Z,27.63
2024-01-28T23:44:47.311Z,20.90
2024-01-28T23:47:49.860Z,18.80
2024-01-28T23:50:52.795Z,23.30
2024-01-28T23:53:55.569Z,24.63
2024-01-28T23:56:57.646Z,23.35
2024-01-28T23:59:59.891Z,27.90
